sensor_id;sensor_type;location;lat;lon;timestamp;P1;durP1;ratioP1;P2;durP2;ratioP2
15258;SDS011;34462;51.368;12.364;2023-06-04T00:01:49;2.67;;;2.37;;
15258;SDS011;34462;51.368;12.364;2023-06-04T00:04:17;3.53;;;2.27;;
15258;SDS011;34462;51.368;12.364;2023-06-04T00:06:46;3.37;;;2.30;;
15258;SDS011;34462;51.368;12.364;2023-06-04T00:09:14;3.57;;;2.47;;
15258;SDS011;34462;51.368;12.364;2023-06-04T00:11:43;2.80;;;2.30;;
15258;SDS011;34462;51.368;12.364;2023-06-04T00:14:14;2.33;;;2.13;;
15258;SDS011;34462;51.368;12.364;2023-06-04T00:16:42;3.37;;;2.20;;
15258;SDS011;34462;51.368;12.364;2023-06-04T00:19:11;4.07;;;2.37;;
15258;SDS011;34462;51.368;12.364;2023-06-04T00:21:39;4.07;;;2.27;;
15258;SDS011;34462;51.368;12.364;2023-06-04T00:24:08;3.63;;;2.13;;
15258;SDS011;34462;51.368;12.364;2023-06-04T00:26:39;2.70;;;2.10;;
15258;SDS011;34462;51.368;12.364;2023-06-04T00:29:07;3.00;;;2.30;;
15258;SDS011;34462;51.368;12.364;2023-06-04T00:31:37;3.77;;;2.30;;
15258;SDS011;34462;51.368;12.364;2023-06-04T00:34:06;2.43;;;2.23;;
15258;SDS011;34462;51.368;12.364;2023-06-04T00:36:35;3.20;;;2.47;;
15258;SDS011;34462;51.368;12.364;2023-06-04T00:39:03;6.03;;;2.00;;
15258;SDS011;34462;51.368;12.364;2023-06-04T00:41:32;3.13;;;2.20;;
15258;SDS011;34462;51.368;12.364;2023-06-04T00:44:00;3.47;;;2.33;;
15258;SDS011;34462;51.368;12.364;2023-06-04T00:46:32;4.47;;;2.47;;
15258;SDS011;34462;51.368;12.364;2023-06-04T00:49:05;2.70;;;2.20;;
15258;SDS011;34462;51.368;12.364;2023-06-04T00:51:34;2.33;;;2.00;;
15258;SDS011;34462;51.368;12.364;2023-06-04T00:54:03;2.40;;;2.10;;
15258;SDS011;34462;51.368;12.364;2023-06-04T00:56:35;3.33;;;1.97;;
15258;SDS011;34462;51.368;12.364;2023-06-04T00:59:05;2.90;;;2.20;;
15258;SDS011;34462;51.368;12.364;2023-06-04T01:01:36;2.90;;;2.07;;
15258;SDS011;34462;51.368;12.364;2023-06-04T01:04:14;5.00;;;2.43;;
15258;SDS011;34462;51.368;12.364;2023-06-04T01:06:47;2.40;;;2.10;;
15258;SDS011;34462;51.368;12.364;2023-06-04T01:09:18;2.20;;;2.00;;
15258;SDS011;34462;51.368;12.364;2023-06-04T01:11:47;5.00;;;2.27;;
15258;SDS011;34462;51.368;12.364;2023-06-04T01:14:15;2.87;;;2.10;;
15258;SDS011;34462;51.368;12.364;2023-06-04T01:16:45;3.27;;;2.30;;
15258;SDS011;34462;51.368;12.364;2023-06-04T01:19:23;2.67;;;2.30;;
15258;SDS011;34462;51.368;12.364;2023-06-04T01:22:18;3.00;;;1.93;;
15258;SDS011;34462;51.368;12.364;2023-06-04T01:25:02;2.87;;;2.00;;
15258;SDS011;34462;51.368;12.364;2023-06-04T01:27:33;3.47;;;2.20;;
15258;SDS011;34462;51.368;12.364;2023-06-04T01:30:02;3.40;;;1.90;;
15258;SDS011;34462;51.368;12.364;2023-06-04T01:32:31;2.10;;;1.87;;
15258;SDS011;34462;51.368;12.364;2023-06-04T01:35:02;4.03;;;2.07;;
15258;SDS011;34462;51.368;12.364;2023-06-04T01:37:34;2.30;;;2.00;;
15258;SDS011;34462;51.368;12.364;2023-06-04T01:40:04;3.23;;;1.90;;
15258;SDS011;34462;51.368;12.364;2023-06-04T01:42:34;3.33;;;2.00;;
15258;SDS011;34462;51.368;12.364;2023-06-04T01:45:03;2.50;;;2.30;;
15258;SDS011;34462;51.368;12.364;2023-06-04T01:47:32;3.17;;;2.40;;
15258;SDS011;34462;51.368;12.364;2023-06-04T01:50:02;2.40;;;2.00;;
15258;SDS011;34462;51.368;12.364;2023-06-04T01:52:35;4.70;;;2.03;;
15258;SDS011;34462;51.368;12.364;2023-06-04T01:55:04;2.40;;;2.20;;
15258;SDS011;34462;51.368;12.364;2023-06-04T01:57:33;2.67;;;2.47;;
15258;SDS011;34462;51.368;12.364;2023-06-04T02:00:03;3.57;;;2.20;;
15258;SDS011;34462;51.368;12.364;2023-06-04T02:02:34;3.83;;;2.20;;
15258;SDS011;34462;51.368;12.364;2023-06-04T02:05:05;4.37;;;2.10;;
15258;SDS011;34462;51.368;12.364;2023-06-04T02:07:35;2.73;;;2.10;;
15258;SDS011;34462;51.368;12.364;2023-06-04T02:10:05;2.90;;;2.17;;
15258;SDS011;34462;51.368;12.364;2023-06-04T02:12:35;3.83;;;2.37;;
15258;SDS011;34462;51.368;12.364;2023-06-04T02:15:05;3.43;;;2.67;;
15258;SDS011;34462;51.368;12.364;2023-06-04T02:17:35;3.27;;;2.00;;
15258;SDS011;34462;51.368;12.364;2023-06-04T02:20:10;3.47;;;2.00;;
15258;SDS011;34462;51.368;12.364;2023-06-04T02:22:39;3.40;;;2.47;;
15258;SDS011;34462;51.368;12.364;2023-06-04T02:25:08;2.73;;;2.10;;
15258;SDS011;34462;51.368;12.364;2023-06-04T02:27:36;5.77;;;2.10;;
15258;SDS011;34462;51.368;12.364;2023-06-04T02:30:05;2.37;;;2.17;;
15258;SDS011;34462;51.368;12.364;2023-06-04T02:32:34;4.23;;;2.20;;
15258;SDS011;34462;51.368;12.364;2023-06-04T02:35:03;2.60;;;2.40;;
15258;SDS011;34462;51.368;12.364;2023-06-04T02:37:34;4.00;;;2.30;;
15258;SDS011;34462;51.368;12.364;2023-06-04T02:40:02;4.47;;;2.17;;
15258;SDS011;34462;51.368;12.364;2023-06-04T02:42:31;2.77;;;2.57;;
15258;SDS011;34462;51.368;12.364;2023-06-04T02:45:00;3.30;;;2.40;;
15258;SDS011;34462;51.368;12.364;2023-06-04T02:47:28;3.57;;;2.90;;
15258;SDS011;34462;51.368;12.364;2023-06-04T02:49:57;3.17;;;2.40;;
15258;SDS011;34462;51.368;12.364;2023-06-04T02:52:25;3.30;;;2.60;;
15258;SDS011;34462;51.368;12.364;2023-06-04T02:54:55;3.37;;;2.57;;
15258;SDS011;34462;51.368;12.364;2023-06-04T02:57:24;4.20;;;2.80;;
15258;SDS011;34462;51.368;12.364;2023-06-04T02:59:52;4.37;;;2.93;;
15258;SDS011;34462;51.368;12.364;2023-06-04T03:02:21;3.83;;;2.93;;
15258;SDS011;34462;51.368;12.364;2023-06-04T03:04:50;3.33;;;2.87;;
15258;SDS011;34462;51.368;12.364;2023-06-04T03:07:21;3.53;;;3.10;;
15258;SDS011;34462;51.368;12.364;2023-06-04T03:09:50;3.27;;;2.70;;
15258;SDS011;34462;51.368;12.364;2023-06-04T03:12:19;4.37;;;2.70;;
15258;SDS011;34462;51.368;12.364;2023-06-04T03:14:48;3.93;;;2.53;;
15258;SDS011;34462;51.368;12.364;2023-06-04T03:17:16;3.90;;;2.67;;
15258;SDS011;34462;51.368;12.364;2023-06-04T03:19:45;5.50;;;2.97;;
15258;SDS011;34462;51.368;12.364;2023-06-04T03:22:14;3.73;;;3.20;;
15258;SDS011;34462;51.368;12.364;2023-06-04T03:24:42;3.53;;;3.00;;
15258;SDS011;34462;51.368;12.364;2023-06-04T03:27:11;4.73;;;2.93;;
15258;SDS011;34462;51.368;12.364;2023-06-04T03:29:41;3.60;;;2.67;;
15258;SDS011;34462;51.368;12.364;2023-06-04T03:32:09;3.10;;;2.80;;
15258;SDS011;34462;51.368;12.364;2023-06-04T03:34:38;3.30;;;2.87;;
15258;SDS011;34462;51.368;12.364;2023-06-04T03:37:07;4.30;;;2.90;;
15258;SDS011;34462;51.368;12.364;2023-06-04T03:39:36;3.30;;;2.63;;
15258;SDS011;34462;51.368;12.364;2023-06-04T03:42:04;3.20;;;2.90;;
15258;SDS011;34462;51.368;12.364;2023-06-04T03:44:33;3.70;;;2.90;;
15258;SDS011;34462;51.368;12.364;2023-06-04T03:47:03;3.67;;;3.07;;
15258;SDS011;34462;51.368;12.364;2023-06-04T03:49:32;4.17;;;2.93;;
15258;SDS011;34462;51.368;12.364;2023-06-04T03:52:00;4.73;;;2.90;;
15258;SDS011;34462;51.368;12.364;2023-06-04T03:54:29;3.23;;;2.93;;
15258;SDS011;34462;51.368;12.364;2023-06-04T03:56:58;4.97;;;2.90;;
15258;SDS011;34462;51.368;12.364;2023-06-04T03:59:26;3.27;;;2.97;;
15258;SDS011;34462;51.368;12.364;2023-06-04T04:01:55;3.60;;;2.90;;
15258;SDS011;34462;51.368;12.364;2023-06-04T04:04:24;5.30;;;3.07;;
15258;SDS011;34462;51.368;12.364;2023-06-04T04:06:53;4.93;;;3.10;;
15258;SDS011;34462;51.368;12.364;2023-06-04T04:09:21;3.77;;;3.20;;
15258;SDS011;34462;51.368;12.364;2023-06-04T04:11:50;3.37;;;2.97;;
15258;SDS011;34462;51.368;12.364;2023-06-04T04:14:18;3.17;;;2.83;;
15258;SDS011;34462;51.368;12.364;2023-06-04T04:16:47;3.13;;;2.83;;
15258;SDS011;34462;51.368;12.364;2023-06-04T04:19:16;4.33;;;3.30;;
15258;SDS011;34462;51.368;12.364;2023-06-04T04:21:45;3.50;;;2.90;;
15258;SDS011;34462;51.368;12.364;2023-06-04T04:24:21;4.50;;;3.27;;
15258;SDS011;34462;51.368;12.364;2023-06-04T04:26:50;3.33;;;3.03;;
15258;SDS011;34462;51.368;12.364;2023-06-04T04:29:20;3.97;;;3.10;;
15258;SDS011;34462;51.368;12.364;2023-06-04T04:31:51;4.17;;;2.90;;
15258;SDS011;34462;51.368;12.364;2023-06-04T04:34:19;4.07;;;3.10;;
15258;SDS011;34462;51.368;12.364;2023-06-04T04:36:49;3.30;;;3.00;;
15258;SDS011;34462;51.368;12.364;2023-06-04T04:39:19;4.97;;;3.43;;
15258;SDS011;34462;51.368;12.364;2023-06-04T04:41:50;4.03;;;3.10;;
15258;SDS011;34462;51.368;12.364;2023-06-04T04:44:19;3.47;;;2.97;;
15258;SDS011;34462;51.368;12.364;2023-06-04T04:46:47;3.17;;;2.80;;
15258;SDS011;34462;51.368;12.364;2023-06-04T04:49:16;4.97;;;3.37;;
15258;SDS011;34462;51.368;12.364;2023-06-04T04:51:44;3.10;;;2.80;;
15258;SDS011;34462;51.368;12.364;2023-06-04T04:54:14;3.10;;;2.70;;
15258;SDS011;34462;51.368;12.364;2023-06-04T04:56:43;3.60;;;2.67;;
15258;SDS011;34462;51.368;12.364;2023-06-04T04:59:11;3.03;;;2.22;;
15258;SDS011;34462;51.368;12.364;2023-06-04T05:01:40;3.08;;;2.78;;
15258;SDS011;34462;51.368;12.364;2023-06-04T05:04:08;3.53;;;2.88;;
15258;SDS011;34462;51.368;12.364;2023-06-04T05:06:37;4.40;;;2.80;;
15258;SDS011;34462;51.368;12.364;2023-06-04T05:09:05;3.10;;;2.90;;
15258;SDS011;34462;51.368;12.364;2023-06-04T05:11:36;3.92;;;3.00;;
15258;SDS011;34462;51.368;12.364;2023-06-04T05:14:04;3.97;;;2.53;;
15258;SDS011;34462;51.368;12.364;2023-06-04T05:16:33;3.40;;;2.67;;
15258;SDS011;34462;51.368;12.364;2023-06-04T05:19:02;5.60;;;2.60;;
15258;SDS011;34462;51.368;12.364;2023-06-04T05:21:31;6.65;;;3.00;;
15258;SDS011;34462;51.368;12.364;2023-06-04T05:23:59;3.28;;;2.45;;
15258;SDS011;34462;51.368;12.364;2023-06-04T05:26:28;3.22;;;2.50;;
15258;SDS011;34462;51.368;12.364;2023-06-04T05:28:58;3.25;;;2.40;;
15258;SDS011;34462;51.368;12.364;2023-06-04T05:31:27;2.90;;;2.40;;
15258;SDS011;34462;51.368;12.364;2023-06-04T05:33:55;4.68;;;2.50;;
15258;SDS011;34462;51.368;12.364;2023-06-04T05:36:25;3.00;;;2.40;;
15258;SDS011;34462;51.368;12.364;2023-06-04T05:38:54;3.47;;;2.22;;
15258;SDS011;34462;51.368;12.364;2023-06-04T05:41:23;3.35;;;2.33;;
15258;SDS011;34462;51.368;12.364;2023-06-04T05:43:52;3.00;;;2.20;;
15258;SDS011;34462;51.368;12.364;2023-06-04T05:46:22;2.60;;;2.40;;
15258;SDS011;34462;51.368;12.364;2023-06-04T05:48:51;3.97;;;2.22;;
15258;SDS011;34462;51.368;12.364;2023-06-04T05:51:20;2.33;;;2.13;;
15258;SDS011;34462;51.368;12.364;2023-06-04T05:53:48;2.88;;;2.03;;
15258;SDS011;34462;51.368;12.364;2023-06-04T05:56:17;4.15;;;2.50;;
15258;SDS011;34462;51.368;12.364;2023-06-04T05:58:50;2.85;;;2.03;;
15258;SDS011;34462;51.368;12.364;2023-06-04T06:01:19;4.00;;;2.33;;
15258;SDS011;34462;51.368;12.364;2023-06-04T06:03:49;2.38;;;2.10;;
15258;SDS011;34462;51.368;12.364;2023-06-04T06:06:18;3.30;;;1.92;;
15258;SDS011;34462;51.368;12.364;2023-06-04T06:08:47;4.22;;;2.05;;
15258;SDS011;34462;51.368;12.364;2023-06-04T06:11:15;2.45;;;1.67;;
15258;SDS011;34462;51.368;12.364;2023-06-04T06:13:44;2.53;;;2.08;;
15258;SDS011;34462;51.368;12.364;2023-06-04T06:16:12;2.60;;;1.85;;
15258;SDS011;34462;51.368;12.364;2023-06-04T06:18:43;3.63;;;1.80;;
15258;SDS011;34462;51.368;12.364;2023-06-04T06:21:13;3.17;;;1.90;;
15258;SDS011;34462;51.368;12.364;2023-06-04T06:23:41;4.28;;;1.80;;
15258;SDS011;34462;51.368;12.364;2023-06-04T06:26:10;2.58;;;2.00;;
15258;SDS011;34462;51.368;12.364;2023-06-04T06:28:40;8.75;;;3.05;;
15258;SDS011;34462;51.368;12.364;2023-06-04T06:31:08;2.55;;;2.35;;
15258;SDS011;34462;51.368;12.364;2023-06-04T06:33:37;2.47;;;2.28;;
15258;SDS011;34462;51.368;12.364;2023-06-04T06:36:07;3.15;;;2.10;;
15258;SDS011;34462;51.368;12.364;2023-06-04T06:38:39;2.70;;;2.17;;
15258;SDS011;34462;51.368;12.364;2023-06-04T06:41:07;2.00;;;1.80;;
15258;SDS011;34462;51.368;12.364;2023-06-04T06:43:36;3.05;;;1.90;;
15258;SDS011;34462;51.368;12.364;2023-06-04T06:46:04;2.25;;;1.88;;
15258;SDS011;34462;51.368;12.364;2023-06-04T06:48:33;2.75;;;1.48;;
15258;SDS011;34462;51.368;12.364;2023-06-04T06:51:02;2.15;;;1.70;;
15258;SDS011;34462;51.368;12.364;2023-06-04T06:53:31;2.63;;;1.40;;
15258;SDS011;34462;51.368;12.364;2023-06-04T06:56:00;1.92;;;1.50;;
15258;SDS011;34462;51.368;12.364;2023-06-04T06:58:29;1.65;;;1.50;;
15258;SDS011;34462;51.368;12.364;2023-06-04T07:00:57;2.85;;;1.50;;
15258;SDS011;34462;51.368;12.364;2023-06-04T07:03:26;2.00;;;1.42;;
15258;SDS011;34462;51.368;12.364;2023-06-04T07:05:55;2.42;;;1.63;;
15258;SDS011;34462;51.368;12.364;2023-06-04T07:08:23;2.85;;;1.42;;
15258;SDS011;34462;51.368;12.364;2023-06-04T07:10:52;2.25;;;1.38;;
15258;SDS011;34462;51.368;12.364;2023-06-04T07:13:22;1.48;;;1.33;;
15258;SDS011;34462;51.368;12.364;2023-06-04T07:15:50;2.85;;;1.35;;
15258;SDS011;34462;51.368;12.364;2023-06-04T07:18:19;2.47;;;1.50;;
15258;SDS011;34462;51.368;12.364;2023-06-04T07:20:48;6.10;;;1.52;;
15258;SDS011;34462;51.368;12.364;2023-06-04T07:23:21;2.63;;;1.40;;
15258;SDS011;34462;51.368;12.364;2023-06-04T07:25:50;3.45;;;1.33;;
15258;SDS011;34462;51.368;12.364;2023-06-04T07:28:18;2.25;;;1.50;;
15258;SDS011;34462;51.368;12.364;2023-06-04T07:30:48;2.65;;;1.40;;
15258;SDS011;34462;51.368;12.364;2023-06-04T07:33:17;2.22;;;1.50;;
15258;SDS011;34462;51.368;12.364;2023-06-04T07:35:46;1.83;;;1.48;;
15258;SDS011;34462;51.368;12.364;2023-06-04T07:38:14;2.15;;;1.55;;
15258;SDS011;34462;51.368;12.364;2023-06-04T07:40:45;3.30;;;1.30;;
15258;SDS011;34462;51.368;12.364;2023-06-04T07:43:14;2.35;;;2.10;;
15258;SDS011;34462;51.368;12.364;2023-06-04T07:45:42;2.17;;;1.23;;
15258;SDS011;34462;51.368;12.364;2023-06-04T07:48:13;3.13;;;1.13;;
15258;SDS011;34462;51.368;12.364;2023-06-04T07:50:41;3.15;;;1.38;;
15258;SDS011;34462;51.368;12.364;2023-06-04T07:53:10;2.63;;;1.30;;
15258;SDS011;34462;51.368;12.364;2023-06-04T07:55:38;1.40;;;1.20;;
15258;SDS011;34462;51.368;12.364;2023-06-04T07:58:07;1.65;;;1.20;;
15258;SDS011;34462;51.368;12.364;2023-06-04T08:00:35;3.42;;;0.98;;
15258;SDS011;34462;51.368;12.364;2023-06-04T08:03:04;2.95;;;1.35;;
15258;SDS011;34462;51.368;12.364;2023-06-04T08:05:34;1.90;;;1.13;;
15258;SDS011;34462;51.368;12.364;2023-06-04T08:08:02;1.70;;;1.20;;
15258;SDS011;34462;51.368;12.364;2023-06-04T08:10:31;1.52;;;1.10;;
15258;SDS011;34462;51.368;12.364;2023-06-04T08:13:00;2.72;;;1.10;;
15258;SDS011;34462;51.368;12.364;2023-06-04T08:15:29;1.60;;;1.10;;
15258;SDS011;34462;51.368;12.364;2023-06-04T08:17:57;1.58;;;1.17;;
15258;SDS011;34462;51.368;12.364;2023-06-04T08:20:26;1.48;;;1.08;;
15258;SDS011;34462;51.368;12.364;2023-06-04T08:22:56;1.83;;;1.20;;
15258;SDS011;34462;51.368;12.364;2023-06-04T08:25:24;2.13;;;1.10;;
15258;SDS011;34462;51.368;12.364;2023-06-04T08:27:53;2.20;;;1.10;;
15258;SDS011;34462;51.368;12.364;2023-06-04T08:30:21;1.70;;;1.00;;
15258;SDS011;34462;51.368;12.364;2023-06-04T08:32:51;1.15;;;0.98;;
15258;SDS011;34462;51.368;12.364;2023-06-04T08:35:20;1.23;;;0.90;;
15258;SDS011;34462;51.368;12.364;2023-06-04T08:37:48;1.35;;;0.90;;
15258;SDS011;34462;51.368;12.364;2023-06-04T08:40:18;2.30;;;1.00;;
15258;SDS011;34462;51.368;12.364;2023-06-04T08:42:48;1.35;;;1.25;;
15258;SDS011;34462;51.368;12.364;2023-06-04T08:45:17;1.73;;;0.93;;
15258;SDS011;34462;51.368;12.364;2023-06-04T08:47:48;1.33;;;1.00;;
15258;SDS011;34462;51.368;12.364;2023-06-04T08:50:18;2.25;;;1.10;;
15258;SDS011;34462;51.368;12.364;2023-06-04T08:52:49;1.95;;;1.10;;
15258;SDS011;34462;51.368;12.364;2023-06-04T08:55:23;1.92;;;1.00;;
15258;SDS011;34462;51.368;12.364;2023-06-04T08:57:51;2.22;;;1.17;;
15258;SDS011;34462;51.368;12.364;2023-06-04T09:00:23;2.05;;;1.25;;
15258;SDS011;34462;51.368;12.364;2023-06-04T09:02:51;1.20;;;1.10;;
15258;SDS011;34462;51.368;12.364;2023-06-04T09:05:21;1.23;;;0.93;;
15258;SDS011;34462;51.368;12.364;2023-06-04T09:07:51;1.20;;;1.10;;
15258;SDS011;34462;51.368;12.364;2023-06-04T09:10:24;1.10;;;0.93;;
15258;SDS011;34462;51.368;12.364;2023-06-04T09:12:57;2.58;;;1.17;;
15258;SDS011;34462;51.368;12.364;2023-06-04T09:15:29;1.15;;;1.05;;
15258;SDS011;34462;51.368;12.364;2023-06-04T09:17:57;1.52;;;1.02;;
15258;SDS011;34462;51.368;12.364;2023-06-04T09:20:26;2.95;;;1.10;;
15258;SDS011;34462;51.368;12.364;2023-06-04T09:22:55;1.50;;;0.98;;
15258;SDS011;34462;51.368;12.364;2023-06-04T09:25:26;2.28;;;1.20;;
15258;SDS011;34462;51.368;12.364;2023-06-04T09:27:56;2.33;;;1.08;;
15258;SDS011;34462;51.368;12.364;2023-06-04T09:30:32;2.08;;;1.30;;
15258;SDS011;34462;51.368;12.364;2023-06-04T09:33:06;1.05;;;0.95;;
15258;SDS011;34462;51.368;12.364;2023-06-04T09:35:34;2.97;;;1.10;;
15258;SDS011;34462;51.368;12.364;2023-06-04T09:38:04;2.13;;;1.23;;
15258;SDS011;34462;51.368;12.364;2023-06-04T09:40:37;2.00;;;1.10;;
15258;SDS011;34462;51.368;12.364;2023-06-04T09:43:06;1.30;;;1.10;;
15258;SDS011;34462;51.368;12.364;2023-06-04T09:45:35;2.25;;;1.13;;
15258;SDS011;34462;51.368;12.364;2023-06-04T09:48:03;1.58;;;1.10;;
15258;SDS011;34462;51.368;12.364;2023-06-04T09:50:35;2.50;;;1.10;;
15258;SDS011;34462;51.368;12.364;2023-06-04T09:53:12;1.35;;;1.00;;
15258;SDS011;34462;51.368;12.364;2023-06-04T09:55:43;1.88;;;0.95;;
15258;SDS011;34462;51.368;12.364;2023-06-04T09:58:11;1.15;;;1.05;;
15258;SDS011;34462;51.368;12.364;2023-06-04T10:00:41;2.08;;;1.05;;
15258;SDS011;34462;51.368;12.364;2023-06-04T10:03:12;2.15;;;1.10;;
15258;SDS011;34462;51.368;12.364;2023-06-04T10:05:46;2.05;;;1.38;;
15258;SDS011;34462;51.368;12.364;2023-06-04T10:08:14;2.13;;;0.98;;
15258;SDS011;34462;51.368;12.364;2023-06-04T10:10:46;2.80;;;1.27;;
15258;SDS011;34462;51.368;12.364;2023-06-04T10:13:16;3.63;;;1.92;;
15258;SDS011;34462;51.368;12.364;2023-06-04T10:15:46;1.33;;;1.10;;
15258;SDS011;34462;51.368;12.364;2023-06-04T10:18:16;2.42;;;1.00;;
15258;SDS011;34462;51.368;12.364;2023-06-04T10:20:45;1.13;;;1.02;;
15258;SDS011;34462;51.368;12.364;2023-06-04T10:23:14;2.30;;;1.13;;
15258;SDS011;34462;51.368;12.364;2023-06-04T10:25:48;1.40;;;1.20;;
15258;SDS011;34462;51.368;12.364;2023-06-04T10:28:19;1.55;;;1.10;;
15258;SDS011;34462;51.368;12.364;2023-06-04T10:30:48;2.47;;;1.20;;
15258;SDS011;34462;51.368;12.364;2023-06-04T10:33:24;1.25;;;1.00;;
15258;SDS011;34462;51.368;12.364;2023-06-04T10:35:54;1.58;;;1.05;;
15258;SDS011;34462;51.368;12.364;2023-06-04T10:38:23;1.30;;;1.00;;
15258;SDS011;34462;51.368;12.364;2023-06-04T10:40:53;1.27;;;1.10;;
15258;SDS011;34462;51.368;12.364;2023-06-04T10:43:22;1.83;;;0.90;;
15258;SDS011;34462;51.368;12.364;2023-06-04T10:45:58;1.83;;;0.98;;
15258;SDS011;34462;51.368;12.364;2023-06-04T10:48:44;3.13;;;1.20;;
15258;SDS011;34462;51.368;12.364;2023-06-04T10:51:28;1.80;;;1.30;;
15258;SDS011;34462;51.368;12.364;2023-06-04T10:53:58;2.47;;;1.10;;
15258;SDS011;34462;51.368;12.364;2023-06-04T10:56:29;1.88;;;1.30;;
15258;SDS011;34462;51.368;12.364;2023-06-04T10:59:00;1.75;;;1.20;;
15258;SDS011;34462;51.368;12.364;2023-06-04T11:01:39;1.77;;;1.20;;
15258;SDS011;34462;51.368;12.364;2023-06-04T11:04:17;1.60;;;1.27;;
15258;SDS011;34462;51.368;12.364;2023-06-04T11:06:59;1.40;;;1.30;;
15258;SDS011;34462;51.368;12.364;2023-06-04T11:09:29;1.33;;;1.23;;
15258;SDS011;34462;51.368;12.364;2023-06-04T11:12:01;1.40;;;1.30;;
15258;SDS011;34462;51.368;12.364;2023-06-04T11:14:32;2.00;;;1.30;;
15258;SDS011;34462;51.368;12.364;2023-06-04T11:17:08;2.47;;;1.23;;
15258;SDS011;34462;51.368;12.364;2023-06-04T11:19:38;2.58;;;1.20;;
15258;SDS011;34462;51.368;12.364;2023-06-04T11:22:09;2.35;;;1.20;;
15258;SDS011;34462;51.368;12.364;2023-06-04T11:24:39;2.40;;;1.40;;
15258;SDS011;34462;51.368;12.364;2023-06-04T11:27:09;1.35;;;1.20;;
15258;SDS011;34462;51.368;12.364;2023-06-04T11:29:57;2.65;;;1.30;;
15258;SDS011;34462;51.368;12.364;2023-06-04T11:32:26;1.50;;;1.40;;
15258;SDS011;34462;51.368;12.364;2023-06-04T11:35:01;1.35;;;1.25;;
15258;SDS011;34462;51.368;12.364;2023-06-04T11:37:31;1.90;;;1.20;;
15258;SDS011;34462;51.368;12.364;2023-06-04T11:40:00;1.80;;;1.30;;
15258;SDS011;34462;51.368;12.364;2023-06-04T11:42:33;3.53;;;1.20;;
15258;SDS011;34462;51.368;12.364;2023-06-04T11:45:02;1.27;;;1.10;;
15258;SDS011;34462;51.368;12.364;2023-06-04T11:47:31;1.27;;;1.17;;
15258;SDS011;34462;51.368;12.364;2023-06-04T11:50:00;1.85;;;1.27;;
15258;SDS011;34462;51.368;12.364;2023-06-04T11:52:28;2.88;;;1.20;;
15258;SDS011;34462;51.368;12.364;2023-06-04T11:54:57;3.30;;;1.40;;
15258;SDS011;34462;51.368;12.364;2023-06-04T11:57:26;1.25;;;1.13;;
15258;SDS011;34462;51.368;12.364;2023-06-04T11:59:56;1.77;;;1.30;;
15258;SDS011;34462;51.368;12.364;2023-06-04T12:02:25;1.48;;;1.30;;
15258;SDS011;34462;51.368;12.364;2023-06-04T12:04:54;2.35;;;1.13;;
15258;SDS011;34462;51.368;12.364;2023-06-04T12:07:22;1.83;;;1.67;;
15258;SDS011;34462;51.368;12.364;2023-06-04T12:09:51;3.53;;;1.58;;
15258;SDS011;34462;51.368;12.364;2023-06-04T12:12:21;2.88;;;1.10;;
15258;SDS011;34462;51.368;12.364;2023-06-04T12:14:58;2.33;;;1.20;;
15258;SDS011;34462;51.368;12.364;2023-06-04T12:17:27;1.30;;;1.20;;
15258;SDS011;34462;51.368;12.364;2023-06-04T12:19:56;2.20;;;1.30;;
15258;SDS011;34462;51.368;12.364;2023-06-04T12:22:25;1.92;;;1.40;;
15258;SDS011;34462;51.368;12.364;2023-06-04T12:24:54;2.45;;;1.23;;
15258;SDS011;34462;51.368;12.364;2023-06-04T12:27:25;1.27;;;1.13;;
15258;SDS011;34462;51.368;12.364;2023-06-04T12:29:54;2.28;;;1.40;;
15258;SDS011;34462;51.368;12.364;2023-06-04T12:32:25;2.13;;;1.20;;
15258;SDS011;34462;51.368;12.364;2023-06-04T12:34:55;1.33;;;1.23;;
15258;SDS011;34462;51.368;12.364;2023-06-04T12:37:23;1.35;;;1.20;;
15258;SDS011;34462;51.368;12.364;2023-06-04T12:39:53;1.70;;;1.30;;
15258;SDS011;34462;51.368;12.364;2023-06-04T12:42:22;1.20;;;1.10;;
15258;SDS011;34462;51.368;12.364;2023-06-04T12:44:50;2.97;;;1.35;;
15258;SDS011;34462;51.368;12.364;2023-06-04T12:47:19;2.53;;;1.35;;
15258;SDS011;34462;51.368;12.364;2023-06-04T12:49:49;2.45;;;1.20;;
15258;SDS011;34462;51.368;12.364;2023-06-04T12:52:18;2.50;;;1.20;;
15258;SDS011;34462;51.368;12.364;2023-06-04T12:54:47;2.03;;;1.10;;
15258;SDS011;34462;51.368;12.364;2023-06-04T12:57:16;1.38;;;1.20;;
15258;SDS011;34462;51.368;12.364;2023-06-04T12:59:44;3.00;;;1.40;;
15258;SDS011;34462;51.368;12.364;2023-06-04T13:02:13;1.23;;;1.10;;
15258;SDS011;34462;51.368;12.364;2023-06-04T13:04:41;3.65;;;1.40;;
15258;SDS011;34462;51.368;12.364;2023-06-04T13:07:12;2.95;;;1.27;;
15258;SDS011;34462;51.368;12.364;2023-06-04T13:09:40;2.78;;;1.48;;
15258;SDS011;34462;51.368;12.364;2023-06-04T13:12:09;1.60;;;1.20;;
15258;SDS011;34462;51.368;12.364;2023-06-04T13:14:39;1.80;;;1.38;;
15258;SDS011;34462;51.368;12.364;2023-06-04T13:17:08;1.40;;;1.20;;
15258;SDS011;34462;51.368;12.364;2023-06-04T13:19:48;2.55;;;1.30;;
15258;SDS011;34462;51.368;12.364;2023-06-04T13:22:18;1.13;;;1.02;;
15258;SDS011;34462;51.368;12.364;2023-06-04T13:24:46;1.27;;;1.17;;
15258;SDS011;34462;51.368;12.364;2023-06-04T13:27:15;2.47;;;1.40;;
15258;SDS011;34462;51.368;12.364;2023-06-04T13:29:43;1.23;;;1.13;;
15258;SDS011;34462;51.368;12.364;2023-06-04T13:32:11;3.58;;;1.77;;
15258;SDS011;34462;51.368;12.364;2023-06-04T13:34:40;1.73;;;1.30;;
15258;SDS011;34462;51.368;12.364;2023-06-04T13:37:09;1.58;;;1.20;;
15258;SDS011;34462;51.368;12.364;2023-06-04T13:39:40;1.27;;;1.15;;
15258;SDS011;34462;51.368;12.364;2023-06-04T13:42:08;1.58;;;1.38;;
15258;SDS011;34462;51.368;12.364;2023-06-04T13:44:37;1.40;;;1.30;;
15258;SDS011;34462;51.368;12.364;2023-06-04T13:47:05;1.90;;;1.35;;
15258;SDS011;34462;51.368;12.364;2023-06-04T13:49:34;1.30;;;1.20;;
15258;SDS011;34462;51.368;12.364;2023-06-04T13:52:02;2.97;;;1.27;;
15258;SDS011;34462;51.368;12.364;2023-06-04T13:54:31;1.48;;;1.38;;
15258;SDS011;34462;51.368;12.364;2023-06-04T13:57:02;1.70;;;1.20;;
15258;SDS011;34462;51.368;12.364;2023-06-04T13:59:32;1.80;;;0.98;;
15258;SDS011;34462;51.368;12.364;2023-06-04T14:02:01;2.80;;;1.30;;
15258;SDS011;34462;51.368;12.364;2023-06-04T14:04:29;1.58;;;1.25;;
15258;SDS011;34462;51.368;12.364;2023-06-04T14:06:58;1.60;;;1.30;;
15258;SDS011;34462;51.368;12.364;2023-06-04T14:09:26;1.48;;;1.30;;
15258;SDS011;34462;51.368;12.364;2023-06-04T14:11:55;1.48;;;1.15;;
15258;SDS011;34462;51.368;12.364;2023-06-04T14:14:26;3.00;;;1.30;;
15258;SDS011;34462;51.368;12.364;2023-06-04T14:16:55;1.58;;;1.20;;
15258;SDS011;34462;51.368;12.364;2023-06-04T14:19:24;2.42;;;1.27;;
15258;SDS011;34462;51.368;12.364;2023-06-04T14:21:52;1.77;;;1.30;;
15258;SDS011;34462;51.368;12.364;2023-06-04T14:24:21;1.45;;;1.08;;
15258;SDS011;34462;51.368;12.364;2023-06-04T14:26:49;2.33;;;1.20;;
15258;SDS011;34462;51.368;12.364;2023-06-04T14:29:18;1.27;;;1.17;;
15258;SDS011;34462;51.368;12.364;2023-06-04T14:31:48;2.35;;;1.30;;
15258;SDS011;34462;51.368;12.364;2023-06-04T14:34:17;1.40;;;1.30;;
15258;SDS011;34462;51.368;12.364;2023-06-04T14:36:47;1.25;;;1.08;;
15258;SDS011;34462;51.368;12.364;2023-06-04T14:39:15;2.40;;;1.58;;
15258;SDS011;34462;51.368;12.364;2023-06-04T14:41:47;1.85;;;1.20;;
15258;SDS011;34462;51.368;12.364;2023-06-04T14:44:17;3.00;;;1.30;;
15258;SDS011;34462;51.368;12.364;2023-06-04T14:46:45;1.65;;;1.23;;
15258;SDS011;34462;51.368;12.364;2023-06-04T14:49:17;1.25;;;0.95;;